Time;durP1;ratioP1;P1;durP2;ratioP2;P2;SDS_P1;SDS_P2;PMS_P1;PMS_P2;Temp;Humidity;BMP_temperature;BMP_pressure;BME280_temperature;BME280_humidity;BME280_pressure;Samples;Min_cycle;Max_cycle;Signal;HPM_P1;HPM_P2
2021/05/12 00:01:53;;;;;;;6.03;2.55;;;9.80;94.60;;;;;;10325214;28;20056;-63
2021/05/12 00:06:55;;;;;;;8.43;2.22;;;9.70;95.00;;;;;;10324749;28;20769;-64
2021/05/12 00:11:56;;;;;;;11.33;2.33;;;9.60;94.90;;;;;;10323496;28;20056;-63
2021/05/12 00:17:00;;;;;;;8.80;2.47;;;9.50;95.10;;;;;;10322404;28;20056;-63
2021/05/12 00:22:14;;;;;;;5.43;2.28;;;9.40;95.40;;;;;;10323426;28;21199;-63
2021/05/12 00:27:16;;;;;;;11.98;3.47;;;9.30;95.60;;;;;;10321619;28;20059;-63
2021/05/12 00:32:17;;;;;;;7.97;2.88;;;9.30;95.70;;;;;;10324878;28;21373;-63
2021/05/12 00:37:19;;;;;;;8.48;2.60;;;9.20;95.90;;;;;;10324227;28;21223;-64
2021/05/12 00:42:21;;;;;;;13.23;2.57;;;9.20;96.10;;;;;;10322521;28;21196;-63
2021/05/12 00:47:26;;;;;;;7.88;3.47;;;9.10;96.30;;;;;;10321262;28;20084;-63
2021/05/12 00:52:28;;;;;;;7.25;2.35;;;9.10;96.60;;;;;;10323396;28;20080;-64
2021/05/12 00:57:30;;;;;;;6.82;2.63;;;9.10;97.10;;;;;;10320590;28;20698;-63
2021/05/12 01:02:33;;;;;;;6.80;3.00;;;9.20;97.40;;;;;;10322874;28;20049;-63
2021/05/12 01:07:35;;;;;;;10.75;2.67;;;9.30;97.80;;;;;;10321198;28;21652;-64
2021/05/12 01:12:36;;;;;;;7.87;2.50;;;9.50;98.20;;;;;;10319402;28;20072;-63
2021/05/12 01:17:38;;;;;;;13.63;2.58;;;9.70;98.80;;;;;;10319483;28;20510;-63
2021/05/12 01:22:40;;;;;;;8.52;2.35;;;9.80;99.30;;;;;;10322889;28;20056;-63
2021/05/12 01:27:43;;;;;;;10.70;2.20;;;9.70;99.80;;;;;;10321576;28;20589;-63
2021/05/12 01:32:44;;;;;;;11.93;3.03;;;9.50;99.90;;;;;;10323130;28;20088;-64
2021/05/12 01:37:47;;;;;;;9.65;2.88;;;9.40;99.90;;;;;;10322374;28;20053;-63
2021/05/12 01:42:48;;;;;;;14.00;3.57;;;9.40;99.90;;;;;;10319130;28;20079;-63
2021/05/12 01:47:49;;;;;;;14.80;3.88;;;9.40;99.90;;;;;;10318161;28;20064;-63
2021/05/12 01:52:52;;;;;;;17.08;5.47;;;9.50;99.90;;;;;;10321785;28;20049;-64
2021/05/12 01:57:53;;;;;;;12.87;6.30;;;9.60;99.90;;;;;;10322147;28;20524;-63
2021/05/12 02:02:54;;;;;;;17.85;7.10;;;9.70;99.90;;;;;;10330736;28;21333;-64
2021/05/12 02:07:59;;;;;;;15.40;7.28;;;9.80;99.90;;;;;;10334729;28;20049;-63
2021/05/12 02:13:00;;;;;;;21.65;8.98;;;9.70;99.90;;;;;;10336824;28;20780;-63
2021/05/12 02:18:02;;;;;;;21.30;9.77;;;9.70;99.90;;;;;;10333854;28;20107;-63
2021/05/12 02:23:07;;;;;;;20.77;9.63;;;9.60;99.90;;;;;;10334779;28;21065;-63
2021/05/12 02:28:10;;;;;;;20.55;10.82;;;9.60;99.90;;;;;;10335763;28;20053;-63
2021/05/12 02:33:12;;;;;;;24.13;11.73;;;9.60;99.90;;;;;;10337069;28;20056;-63
2021/05/12 02:38:14;;;;;;;31.40;13.40;;;9.50;99.90;;;;;;10335119;28;20053;-63
2021/05/12 02:43:15;;;;;;;29.70;12.77;;;9.40;99.90;;;;;;10336204;28;20045;-63
2021/05/12 02:48:17;;;;;;;32.15;13.60;;;9.30;99.90;;;;;;10333912;28;20142;-63
2021/05/12 02:53:21;;;;;;;31.52;13.10;;;9.30;99.90;;;;;;10332069;28;20486;-63
2021/05/12 02:58:22;;;;;;;25.33;12.32;;;9.20;99.90;;;;;;10333622;28;21156;-64
2021/05/12 03:03:23;;;;;;;26.45;12.85;;;9.20;99.90;;;;;;10333998;28;21317;-64
2021/05/12 03:08:26;;;;;;;25.77;12.18;;;9.20;99.90;;;;;;10334031;28;20148;-63
2021/05/12 03:13:27;;;;;;;25.67;11.10;;;9.30;99.90;;;;;;10334178;28;20482;-63
2021/05/12 03:18:29;;;;;;;27.48;8.55;;;9.50;99.90;;;;;;10328484;28;21704;-63
2021/05/12 03:23:32;;;;;;;16.30;4.45;;;9.30;99.90;;;;;;10331622;28;20136;-63
2021/05/12 03:28:33;;;;;;;24.65;4.55;;;9.50;99.90;;;;;;10329965;28;20150;-63
2021/05/12 03:33:34;;;;;;;14.82;3.70;;;9.60;99.90;;;;;;10330292;28;20797;-64
2021/05/12 03:38:37;;;;;;;10.88;3.60;;;9.80;99.90;;;;;;10327796;28;20049;-63
2021/05/12 03:43:38;;;;;;;16.52;2.95;;;9.90;99.90;;;;;;10330596;28;20064;-63
2021/05/12 03:48:40;;;;;;;22.85;3.75;;;10.00;99.90;;;;;;10328936;28;20065;-63
2021/05/12 03:53:42;;;;;;;17.08;2.70;;;10.00;99.90;;;;;;10327226;28;21351;-64
2021/05/12 03:58:43;;;;;;;16.52;2.92;;;10.00;99.90;;;;;;10327767;28;20721;-63
2021/05/12 04:03:44;;;;;;;13.27;2.30;;;10.00;99.90;;;;;;10326961;28;20174;-63
2021/05/12 04:08:47;;;;;;;17.63;2.00;;;9.90;99.90;;;;;;10325649;28;20051;-63
2021/05/12 04:13:48;;;;;;;20.47;2.73;;;9.90;99.90;;;;;;10326137;28;20524;-63
2021/05/12 04:18:49;;;;;;;14.15;2.47;;;9.90;99.90;;;;;;10327771;28;20410;-64
2021/05/12 04:23:51;;;;;;;10.30;1.70;;;10.00;99.90;;;;;;10328276;28;20105;-63
2021/05/12 04:28:53;;;;;;;19.87;2.43;;;10.10;99.90;;;;;;10326483;28;20076;-63
2021/05/12 04:33:54;;;;;;;25.45;3.60;;;10.30;99.90;;;;;;10325749;28;20053;-64
2021/05/12 04:38:56;;;;;;;16.17;2.20;;;10.60;99.90;;;;;;10325360;28;20107;-63
2021/05/12 04:43:58;;;;;;;13.63;2.30;;;10.90;99.90;;;;;;10324598;28;21889;-63
2021/05/12 04:49:00;;;;;;;27.63;3.33;;;11.20;99.90;;;;;;10327145;28;20148;-62
2021/05/12 04:54:03;;;;;;;16.03;3.33;;;13.30;99.90;;;;;;10326012;28;20048;-62
2021/05/12 04:59:05;;;;;;;21.35;2.70;;;15.50;93.00;;;;;;10323535;28;20263;-63
2021/05/12 05:04:06;;;;;;;13.10;2.27;;;17.30;85.80;;;;;;10324827;28;20666;-64
2021/05/12 05:09:08;;;;;;;20.85;3.28;;;18.40;78.10;;;;;;10325803;28;20142;-63
2021/05/12 05:14:10;;;;;;;18.42;2.38;;;19.30;71.40;;;;;;10328060;28;20052;-63
2021/05/12 05:19:11;;;;;;;18.85;3.50;;;20.20;66.60;;;;;;10330222;28;20055;-63
2021/05/12 05:24:15;;;;;;;18.45;2.47;;;21.20;61.70;;;;;;10328386;28;21317;-63
2021/05/12 05:29:16;;;;;;;18.95;2.20;;;22.00;57.10;;;;;;10326388;28;20053;-64
2021/05/12 05:34:17;;;;;;;24.27;2.65;;;22.90;53.20;;;;;;10323568;28;20135;-63
2021/05/12 05:39:19;;;;;;;19.98;3.58;;;23.80;50.40;;;;;;10323220;28;20071;-64
2021/05/12 05:44:21;;;;;;;;;;;24.50;47.50;;;;;;10329935;28;20855;-64
2021/05/12 05:49:23;;;;;;;14.52;2.28;;;25.40;45.40;;;;;;10327212;28;19979;-64
2021/05/12 05:54:25;;;;;;;10.90;1.75;;;26.00;43.10;;;;;;10317692;28;20092;-64
2021/05/12 05:59:26;;;;;;;15.45;2.47;;;26.60;41.40;;;;;;10319837;28;20053;-64
2021/05/12 06:04:27;;;;;;;14.45;2.67;;;26.90;40.20;;;;;;10324233;28;21190;-63
2021/05/12 06:09:30;;;;;;;19.10;2.75;;;26.70;39.80;;;;;;10323284;28;20081;-64
2021/05/12 06:14:31;;;;;;;10.30;2.28;;;25.70;40.90;;;;;;10320092;28;20053;-64
2021/05/12 06:19:32;;;;;;;15.70;2.28;;;26.20;40.60;;;;;;10319717;28;20049;-65
2021/05/12 06:24:35;;;;;;;20.67;3.42;;;27.90;37.30;;;;;;10318306;28;20407;-63
2021/05/12 06:29:37;;;;;;;19.83;2.78;;;28.50;35.90;;;;;;10318428;28;20757;-63
2021/05/12 06:34:39;;;;;;;12.77;2.35;;;29.50;35.00;;;;;;10318489;28;20102;-63
2021/05/12 06:39:41;;;;;;;6.85;1.83;;;30.20;34.40;;;;;;10321073;28;21242;-64
2021/05/12 06:44:42;;;;;;;7.85;1.92;;;30.50;33.00;;;;;;10320553;28;21336;-63
2021/05/12 06:49:43;;;;;;;17.58;1.95;;;30.30;32.70;;;;;;10325373;28;20524;-63
2021/05/12 06:54:46;;;;;;;17.15;2.78;;;30.00;32.60;;;;;;10329823;28;20849;-64
2021/05/12 06:59:47;;;;;;;12.88;2.33;;;28.40;35.20;;;;;;10330545;28;20068;-64
2021/05/12 07:04:48;;;;;;;12.73;2.20;;;28.40;33.90;;;;;;10328302;28;20690;-64
2021/05/12 07:09:50;;;;;;;13.43;3.03;;;26.90;36.90;;;;;;10326596;28;20173;-63
2021/05/12 07:14:52;;;;;;;9.45;1.67;;;29.00;34.30;;;;;;10329528;28;20049;-64
2021/05/12 07:19:54;;;;;;;10.55;2.25;;;29.50;33.40;;;;;;10328738;28;20045;-63
2021/05/12 07:24:56;;;;;;;9.30;2.20;;;29.90;32.50;;;;;;10325355;28;20147;-63
2021/05/12 07:29:57;;;;;;;14.05;2.15;;;30.30;31.90;;;;;;10327911;28;21259;-63
2021/05/12 07:34:59;;;;;;;15.23;2.38;;;30.40;30.80;;;;;;10329111;28;21464;-64
2021/05/12 07:40:01;;;;;;;6.40;1.52;;;30.30;31.70;;;;;;10325097;28;20536;-63
2021/05/12 07:45:03;;;;;;;11.05;2.17;;;30.50;30.50;;;;;;10328736;28;20057;-64
2021/05/12 07:50:05;;;;;;;9.10;2.35;;;30.80;30.90;;;;;;10320517;28;20138;-64
2021/05/12 07:55:08;;;;;;;8.45;2.25;;;31.10;30.50;;;;;;10322445;28;20077;-63
2021/05/12 08:00:11;;;;;;;7.60;2.33;;;30.70;30.30;;;;;;10323693;28;20643;-64
2021/05/12 08:05:13;;;;;;;11.38;2.72;;;30.30;31.60;;;;;;10326931;28;21398;-64
2021/05/12 08:10:15;;;;;;;9.80;1.95;;;31.20;30.50;;;;;;10324732;28;20057;-64
2021/05/12 08:15:16;;;;;;;11.00;2.13;;;31.30;30.20;;;;;;10326822;28;20052;-64
2021/05/12 08:20:18;;;;;;;11.25;2.30;;;31.20;30.00;;;;;;10324133;28;21215;-63
2021/05/12 08:25:20;;;;;;;13.68;2.40;;;31.10;30.40;;;;;;10326513;28;20049;-63
2021/05/12 08:30:24;;;;;;;16.45;2.13;;;31.40;29.90;;;;;;10326139;28;20199;-65
2021/05/12 08:35:26;;;;;;;9.60;2.10;;;31.20;29.90;;;;;;10325938;28;20057;-64
2021/05/12 08:40:29;;;;;;;12.70;1.80;;;31.40;30.00;;;;;;10324752;28;20049;-64
2021/05/12 08:45:30;;;;;;;10.60;2.40;;;31.30;29.90;;;;;;10326758;28;20105;-65
2021/05/12 08:50:32;;;;;;;7.53;1.73;;;31.20;29.80;;;;;;10325907;28;20045;-65
2021/05/12 08:55:35;;;;;;;11.07;2.03;;;31.30;29.30;;;;;;10320729;28;20421;-64
2021/05/12 09:00:36;;;;;;;6.55;1.20;;;30.70;29.00;;;;;;10323689;28;20049;-64
2021/05/12 09:05:38;;;;;;;10.43;2.03;;;30.30;29.70;;;;;;10323145;28;20702;-64
2021/05/12 09:10:40;;;;;;;7.68;1.77;;;30.80;29.90;;;;;;10322844;28;20080;-64
2021/05/12 09:15:42;;;;;;;6.38;1.63;;;31.10;29.70;;;;;;10323216;28;20503;-64
2021/05/12 09:20:45;;;;;;;10.52;1.95;;;30.80;30.00;;;;;;10319452;28;20053;-63
2021/05/12 09:25:58;;;;;;;10.30;1.85;;;30.30;29.80;;;;;;10321670;28;20516;-64
2021/05/12 09:31:05;;;;;;;13.48;2.10;;;30.60;30.30;;;;;;10319089;28;20122;-64
2021/05/12 09:36:08;;;;;;;12.90;2.78;;;31.00;29.80;;;;;;10325190;28;20737;-63
2021/05/12 09:41:12;;;;;;;6.15;1.30;;;30.90;29.50;;;;;;10323849;28;21287;-63
2021/05/12 09:46:22;;;;;;;8.48;2.28;;;30.70;29.70;;;;;;10320927;28;20052;-64
2021/05/12 09:51:23;;;;;;;14.17;2.03;;;30.80;30.00;;;;;;10325301;28;20072;-64
2021/05/12 09:56:37;;;;;;;11.20;2.38;;;31.10;29.90;;;;;;10322466;28;20557;-64
2021/05/12 10:01:43;;;;;;;6.72;1.73;;;31.00;29.80;;;;;;10324197;28;20052;-63
2021/05/12 10:06:44;;;;;;;7.57;1.70;;;30.70;29.90;;;;;;10323245;28;20048;-64
2021/05/12 10:12:10;;;;;;;9.55;2.00;;;30.60;29.90;;;;;;10318660;28;20191;-63
2021/05/12 10:17:14;;;;;;;10.13;2.13;;;30.70;29.70;;;;;;10321709;28;21325;-64
2021/05/12 10:22:16;;;;;;;8.38;1.63;;;30.90;29.30;;;;;;10326184;28;20782;-62
2021/05/12 10:27:23;;;;;;;7.35;1.52;;;30.60;29.00;;;;;;10330737;28;20060;-63
2021/05/12 10:32:29;;;;;;;11.80;2.45;;;30.40;28.60;;;;;;10328539;28;20053;-63
2021/05/12 10:37:32;;;;;;;7.60;1.80;;;30.70;28.80;;;;;;10327255;28;21079;-65
2021/05/12 10:42:58;;;;;;;9.77;2.08;;;30.90;28.40;;;;;;10326558;28;20056;-64
2021/05/12 10:47:59;;;;;;;9.38;1.73;;;31.00;29.00;;;;;;10328248;28;20143;-64
2021/05/12 10:53:20;;;;;;;10.40;1.65;;;31.20;28.50;;;;;;10331019;28;20851;-64
2021/05/12 10:58:24;;;;;;;5.47;1.63;;;31.00;28.60;;;;;;10328505;28;20528;-61
2021/05/12 11:03:46;;;;;;;8.77;1.52;;;30.80;28.30;;;;;;10330486;28;20091;-60
2021/05/12 11:09:05;;;;;;;8.60;1.75;;;30.60;28.50;;;;;;10293702;28;20056;-62
2021/05/12 11:14:19;;;;;;;6.70;1.40;;;30.90;28.30;;;;;;10293472;28;21704;-62
2021/05/12 11:19:38;;;;;;;6.18;1.50;;;30.80;27.40;;;;;;10293938;28;20636;-62
2021/05/12 11:24:50;;;;;;;4.40;1.52;;;30.50;27.30;;;;;;10291708;28;20080;-61
2021/05/12 11:35:12;;;;;;;8.23;1.92;;;30.40;27.40;;;;;;10297666;28;20749;-62
2021/05/12 11:40:13;;;;;;;5.88;1.63;;;30.60;27.50;;;;;;10297378;28;20740;-61
2021/05/12 11:45:19;;;;;;;5.97;1.52;;;30.50;27.20;;;;;;10295759;28;20076;-63
2021/05/12 11:50:21;;;;;;;7.00;1.90;;;30.30;27.50;;;;;;10293972;28;20792;-62
2021/05/12 11:55:26;;;;;;;9.90;1.90;;;30.00;28.00;;;;;;10295894;28;20165;-62
2021/05/12 12:00:30;;;;;;;10.40;2.17;;;29.80;28.10;;;;;;10291520;28;20111;-62
2021/05/12 12:05:37;;;;;;;10.07;2.00;;;29.90;28.40;;;;;;10290366;28;20061;-63
2021/05/12 12:10:39;;;;;;;10.30;2.03;;;29.70;28.50;;;;;;10288938;28;20057;-62
2021/05/12 12:15:42;;;;;;;12.35;2.28;;;29.30;28.60;;;;;;10290901;28;20733;-61
2021/05/12 12:20:44;;;;;;;10.52;2.33;;;28.90;29.50;;;;;;10289299;28;20053;-61
2021/05/12 12:25:50;;;;;;;8.65;1.70;;;28.80;29.50;;;;;;10292433;28;20049;-61
2021/05/12 12:30:52;;;;;;;7.18;1.73;;;29.10;29.50;;;;;;10292751;28;20160;-61
2021/05/12 12:36:12;;;;;;;10.10;2.17;;;28.80;29.60;;;;;;10292813;28;20045;-61
2021/05/12 12:41:14;;;;;;;6.72;2.03;;;28.40;29.60;;;;;;10295258;28;20057;-61
2021/05/12 12:46:25;;;;;;;12.20;2.55;;;28.30;29.70;;;;;;10296754;28;20057;-61
2021/05/12 12:51:34;;;;;;;9.90;1.83;;;28.00;30.00;;;;;;10294581;28;20490;-61
2021/05/12 12:56:36;;;;;;;15.73;2.15;;;27.80;30.00;;;;;;10296021;28;21140;-62
2021/05/12 13:01:39;;;;;;;13.57;2.60;;;28.50;30.60;;;;;;10295429;28;20049;-63
2021/05/12 13:06:40;;;;;;;10.45;2.58;;;27.50;30.40;;;;;;10293328;28;20081;-62
2021/05/12 13:11:50;;;;;;;8.98;2.30;;;27.30;30.70;;;;;;10288507;28;20056;-61
2021/05/12 13:17:03;;;;;;;10.07;2.30;;;26.80;30.00;;;;;;10292099;28;20070;-62
2021/05/12 13:22:08;;;;;;;9.77;2.70;;;26.10;31.70;;;;;;10290725;28;20049;-62
2021/05/12 13:27:09;;;;;;;10.25;2.38;;;25.70;32.00;;;;;;10289152;28;21275;-62
2021/05/12 13:32:12;;;;;;;13.25;2.00;;;25.10;31.40;;;;;;10289063;28;20729;-62
2021/05/12 13:37:13;;;;;;;9.35;2.13;;;25.00;32.80;;;;;;10291203;28;20843;-61
2021/05/12 13:42:14;;;;;;;11.18;2.42;;;25.20;32.30;;;;;;10290002;28;20741;-61
2021/05/12 13:47:17;;;;;;;7.32;1.48;;;25.30;32.20;;;;;;10289115;28;20179;-61
2021/05/12 13:52:24;;;;;;;14.10;3.03;;;24.90;31.20;;;;;;10298970;28;21988;-60
2021/05/12 13:57:32;;;;;;;13.18;2.13;;;24.50;32.60;;;;;;10286872;28;20729;-61
2021/05/12 14:02:39;;;;;;;14.27;2.85;;;24.70;32.40;;;;;;10297866;28;20056;-61
2021/05/12 14:07:40;;;;;;;9.93;2.20;;;24.70;32.20;;;;;;10292710;28;20060;-59
2021/05/12 14:12:45;;;;;;;13.20;2.22;;;24.30;32.50;;;;;;10297793;28;20057;-61
2021/05/12 14:17:47;;;;;;;10.60;2.33;;;23.30;34.50;;;;;;10300248;28;20079;-61
2021/05/12 14:22:49;;;;;;;8.70;2.10;;;22.40;35.80;;;;;;10301121;28;22474;-61
2021/05/12 14:27:52;;;;;;;9.18;1.85;;;22.00;37.00;;;;;;10297376;28;20091;-61
2021/05/12 14:32:54;;;;;;;12.82;2.55;;;21.60;37.40;;;;;;10298897;28;20052;-61
2021/05/12 14:37:56;;;;;;;13.93;1.98;;;21.20;38.40;;;;;;10299903;28;20079;-60
2021/05/12 14:42:57;;;;;;;17.42;2.10;;;21.00;39.70;;;;;;10294476;28;20544;-63
2021/05/12 14:48:06;;;;;;;12.27;2.42;;;20.90;39.90;;;;;;10293095;28;20088;-62
2021/05/12 14:53:12;;;;;;;17.40;2.80;;;20.80;40.70;;;;;;10298345;28;20060;-62
2021/05/12 14:58:29;;;;;;;10.63;2.70;;;21.70;42.30;;;;;;10296062;28;20072;-62
2021/05/12 15:03:34;;;;;;;12.13;2.03;;;20.60;41.60;;;;;;10294579;28;20823;-62
2021/05/12 15:08:36;;;;;;;11.90;2.25;;;20.10;41.80;;;;;;10296085;28;20049;-62
2021/05/12 15:13:37;;;;;;;22.38;2.72;;;19.60;44.00;;;;;;10282920;28;20226;-62
2021/05/12 15:18:39;;;;;;;8.60;1.90;;;19.00;46.00;;;;;;10301150;28;20061;-61
2021/05/12 15:23:41;;;;;;;7.82;1.15;;;18.50;47.30;;;;;;10283507;28;20568;-62
2021/05/12 15:28:42;;;;;;;15.37;1.47;;;18.20;53.30;;;;;;10299651;28;21380;-63
2021/05/12 15:33:46;;;;;;;20.37;1.77;;;17.50;62.20;;;;;;10301468;28;20072;-64
2021/05/12 15:38:47;;;;;;;24.42;2.00;;;16.60;74.30;;;;;;10300438;28;21045;-64
2021/05/12 15:43:49;;;;;;;211.23;18.40;;;15.80;85.40;;;;;;10302222;28;20053;-63
2021/05/12 15:48:51;;;;;;;8.95;2.15;;;15.70;91.00;;;;;;10300873;28;20056;-62
2021/05/12 15:53:53;;;;;;;9.13;2.75;;;15.60;93.30;;;;;;10298192;28;20060;-63
2021/05/12 15:58:55;;;;;;;9.55;1.60;;;15.70;94.00;;;;;;10301178;28;20052;-63
2021/05/12 16:03:58;;;;;;;10.55;1.52;;;15.80;93.70;;;;;;10300371;28;20061;-64
2021/05/12 16:08:59;;;;;;;;;;;15.60;94.20;;;;;;10303270;28;20045;-63
2021/05/12 16:14:01;;;;;;;11.27;2.60;;;15.20;94.50;;;;;;10299692;28;19932;-62
2021/05/12 16:19:04;;;;;;;8.23;2.60;;;14.90;95.20;;;;;;10300644;28;20061;-62
2021/05/12 16:24:06;;;;;;;10.77;1.95;;;14.50;95.80;;;;;;10294818;28;20111;-62
2021/05/12 16:29:08;;;;;;;5.17;2.00;;;14.40;96.50;;;;;;10295899;28;20045;-62
2021/05/12 16:34:10;;;;;;;5.25;1.92;;;15.00;96.70;;;;;;10299435;28;20048;-62
2021/05/12 16:39:11;;;;;;;6.30;1.90;;;14.30;96.50;;;;;;10297963;28;21812;-62
2021/05/12 16:44:13;;;;;;;8.10;2.50;;;14.30;96.40;;;;;;10298426;28;20091;-60
2021/05/12 16:49:16;;;;;;;9.30;2.30;;;14.20;96.60;;;;;;10296601;28;20155;-61
2021/05/12 16:54:17;;;;;;;8.20;2.13;;;14.20;96.50;;;;;;10300055;28;20080;-61
2021/05/12 16:59:19;;;;;;;11.27;2.55;;;14.30;96.20;;;;;;10291073;28;20999;-59
2021/05/12 17:04:21;;;;;;;10.05;2.53;;;14.20;95.80;;;;;;10292770;28;20072;-61
2021/05/12 17:09:30;;;;;;;6.40;2.38;;;14.20;95.80;;;;;;10297035;28;20049;-63
2021/05/12 17:14:32;;;;;;;8.32;3.05;;;14.20;95.40;;;;;;10292345;28;20075;-63
2021/05/12 17:19:34;;;;;;;6.60;2.57;;;13.90;94.50;;;;;;10294116;28;20077;-64
2021/05/12 17:24:35;;;;;;;9.13;3.13;;;13.90;94.70;;;;;;10296637;28;20876;-65
2021/05/12 17:29:37;;;;;;;11.43;2.75;;;14.00;94.40;;;;;;10292942;28;20057;-65
2021/05/12 17:34:41;;;;;;;10.02;4.65;;;14.20;94.30;;;;;;10276654;28;21798;-64
2021/05/12 17:39:43;;;;;;;8.77;3.78;;;14.30;94.10;;;;;;10295970;28;20251;-64
2021/05/12 17:44:51;;;;;;;6.63;3.08;;;14.50;93.20;;;;;;10298783;28;20084;-66
2021/05/12 17:49:53;;;;;;;7.63;2.58;;;14.50;92.50;;;;;;10296693;28;20084;-65
2021/05/12 17:54:55;;;;;;;8.75;2.55;;;14.60;92.90;;;;;;10295188;28;22100;-65
2021/05/12 17:59:56;;;;;;;6.82;2.60;;;14.60;92.60;;;;;;10298345;28;20130;-65
2021/05/12 18:05:04;;;;;;;5.10;2.22;;;14.60;92.60;;;;;;10292372;28;20759;-64
2021/05/12 18:10:11;;;;;;;3.50;1.80;;;14.60;92.80;;;;;;10293379;28;20106;-64
2021/05/12 18:20:34;;;;;;;5.22;2.08;;;14.60;92.50;;;;;;10278734;28;20770;-64
2021/05/12 18:25:35;;;;;;;12.00;2.20;;;14.40;92.80;;;;;;10280843;28;20421;-64
2021/05/12 18:30:38;;;;;;;8.48;2.10;;;14.30;92.00;;;;;;10282326;28;20499;-64
2021/05/12 18:35:43;;;;;;;10.23;2.40;;;14.00;91.60;;;;;;10285336;28;20053;-65
2021/05/12 18:40:45;;;;;;;7.38;2.03;;;13.80;91.90;;;;;;10281808;28;20057;-65
2021/05/12 18:45:49;;;;;;;9.13;2.47;;;14.10;92.40;;;;;;10288399;28;20090;-64
2021/05/12 18:50:52;;;;;;;9.00;2.30;;;13.40;92.70;;;;;;10290740;28;20648;-63
2021/05/12 18:55:53;;;;;;;9.43;2.30;;;13.20;92.90;;;;;;10286780;28;21734;-65
2021/05/12 19:00:55;;;;;;;13.90;2.47;;;13.00;93.00;;;;;;10287260;28;20141;-64
2021/05/12 19:06:07;;;;;;;19.57;3.87;;;12.90;93.40;;;;;;10286246;28;20513;-64
2021/05/12 19:11:12;;;;;;;27.17;3.08;;;12.80;93.40;;;;;;10286651;28;20127;-64
2021/05/12 19:16:16;;;;;;;6.95;2.53;;;12.70;93.50;;;;;;10289665;28;20045;-64
2021/05/12 19:21:22;;;;;;;13.52;2.58;;;12.60;93.30;;;;;;10288707;28;20150;-64
2021/05/12 19:26:28;;;;;;;9.48;2.70;;;12.50;93.40;;;;;;10286602;28;22004;-64
2021/05/12 19:42:09;;;;;;;17.67;2.95;;;12.40;93.90;;;;;;10286044;28;20052;-64
2021/05/12 19:47:12;;;;;;;12.50;3.40;;;12.40;93.60;;;;;;10286250;28;20053;-63
2021/05/12 19:52:14;;;;;;;13.25;3.20;;;12.40;94.40;;;;;;10287992;28;20057;-65
2021/05/12 20:02:36;;;;;;;10.40;3.63;;;12.30;94.80;;;;;;10286203;28;20041;-64
2021/05/12 20:07:45;;;;;;;17.70;4.45;;;12.30;95.10;;;;;;10287093;28;21021;-66
2021/05/12 20:12:53;;;;;;;11.88;2.83;;;12.30;95.00;;;;;;10284480;28;20061;-64
2021/05/12 20:17:54;;;;;;;19.90;3.80;;;12.30;95.20;;;;;;10283715;28;20053;-63
2021/05/12 20:22:58;;;;;;;20.15;5.10;;;12.30;95.20;;;;;;10284322;28;20049;-64
2021/05/12 20:27:59;;;;;;;11.23;3.70;;;12.30;95.30;;;;;;10282463;28;20061;-65
2021/05/12 20:33:10;;;;;;;15.73;4.18;;;12.20;95.30;;;;;;10282723;28;21013;-63
2021/05/12 20:38:12;;;;;;;14.25;3.97;;;12.00;95.90;;;;;;10275531;28;20048;-64
2021/05/12 20:43:14;;;;;;;9.70;3.23;;;11.90;96.00;;;;;;10275939;28;20073;-63
2021/05/12 20:48:16;;;;;;;20.20;2.63;;;12.50;96.40;;;;;;10278894;28;20477;-65
2021/05/12 20:53:18;;;;;;;9.95;2.58;;;11.90;96.30;;;;;;10288502;28;20059;-64
2021/05/12 20:58:19;;;;;;;20.73;4.07;;;10.30;95.80;;;;;;10291395;28;20061;-64
2021/05/12 21:03:20;;;;;;;12.25;3.13;;;11.90;96.40;;;;;;10295392;28;21453;-64
2021/05/12 21:08:22;;;;;;;11.77;2.55;;;11.90;96.60;;;;;;10294991;28;20213;-64
2021/05/12 21:13:25;;;;;;;11.90;3.35;;;11.80;96.50;;;;;;10295429;28;20498;-64
2021/05/12 21:18:27;;;;;;;14.25;3.70;;;11.80;96.60;;;;;;10293071;28;20211;-63
2021/05/12 21:23:33;;;;;;;11.82;2.60;;;11.80;96.60;;;;;;10296651;28;21543;-64
2021/05/12 21:28:34;;;;;;;16.17;3.60;;;11.80;96.80;;;;;;10290838;28;20049;-64
2021/05/12 21:33:36;;;;;;;12.82;3.30;;;11.80;97.00;;;;;;10293013;28;20560;-64
2021/05/12 21:38:42;;;;;;;16.20;3.65;;;11.70;97.20;;;;;;10293781;28;20053;-64
2021/05/12 21:43:44;;;;;;;11.32;3.55;;;11.70;97.60;;;;;;10284101;28;20694;-64
2021/05/12 21:48:45;;;;;;;13.30;3.55;;;11.60;97.70;;;;;;10284855;28;20178;-64
2021/05/12 21:53:48;;;;;;;13.45;3.00;;;11.50;97.80;;;;;;10289998;28;20125;-64
2021/05/12 21:58:50;;;;;;;;;;;11.30;98.00;;;;;;10288606;28;20087;-64
2021/05/12 22:03:53;;;;;;;15.60;3.80;;;11.10;98.30;;;;;;10293790;28;19936;-64
2021/05/12 22:25:04;;;;;;;17.73;3.85;;;10.30;99.90;;;;;;10296198;28;20896;-63
2021/05/12 22:30:14;;;;;;;9.63;2.92;;;10.30;99.70;;;;;;10294207;28;21758;-63
2021/05/12 22:35:18;;;;;;;14.95;3.33;;;10.20;99.90;;;;;;10294346;28;20116;-64
2021/05/12 22:40:22;;;;;;;9.80;3.30;;;10.10;99.90;;;;;;10295208;28;20045;-63
2021/05/12 22:45:24;;;;;;;16.17;3.85;;;9.90;99.90;;;;;;10297586;28;20068;-63
2021/05/12 22:50:25;;;;;;;9.85;3.47;;;9.80;99.90;;;;;;10298831;28;20092;-64
2021/05/12 22:55:39;;;;;;;11.65;3.33;;;9.70;99.90;;;;;;10295135;28;20095;-64
2021/05/12 23:00:41;;;;;;;13.00;3.05;;;9.60;99.90;;;;;;10295933;28;20080;-64
2021/05/12 23:05:42;;;;;;;12.93;3.22;;;9.60;99.90;;;;;;10298098;28;20196;-64
2021/05/12 23:10:45;;;;;;;14.15;4.43;;;9.50;99.90;;;;;;10294103;28;20056;-64
2021/05/12 23:15:47;;;;;;;15.32;3.70;;;9.50;99.90;;;;;;10289061;28;20186;-63
2021/05/12 23:20:48;;;;;;;11.07;3.63;;;9.40;99.90;;;;;;10317022;28;20615;-64
2021/05/12 23:25:50;;;;;;;14.77;3.72;;;9.40;99.90;;;;;;10327210;28;20956;-64
2021/05/12 23:30:51;;;;;;;18.60;5.05;;;9.40;99.90;;;;;;10316126;28;20091;-64
2021/05/12 23:35:52;;;;;;;20.42;4.38;;;9.30;99.90;;;;;;10292634;28;21363;-64
2021/05/12 23:40:55;;;;;;;19.38;4.95;;;9.30;99.90;;;;;;10292973;28;20041;-63
2021/05/12 23:45:56;;;;;;;14.80;3.67;;;9.20;99.90;;;;;;10292189;28;20083;-63
2021/05/12 23:50:57;;;;;;;15.70;5.55;;;9.20;99.90;;;;;;10290143;28;20585;-63
2021/05/12 23:56:00;;;;;;;18.23;4.28;;;9.20;99.90;;;;;;10291469;28;20505;-63
